This is the latest recevied weather packets stored in our database for station/object KA7KDX-4. If no packets are shown the sender has not sent any weather packets the latest 10 day(s).
| Time | Temp. | Humidity | Pressure | Rain* | Wind** | Luminosity | Snow |
|---|---|---|---|---|---|---|---|
| 1777839906 | 21.67° C | 20% | 1005.3 hPa | 0 mm | - | - | - |
| 1777839605 | 21.67° C | 20% | 1005.3 hPa | 0 mm | - | - | - |
| 1777839305 | 22.22° C | 21% | 1005.3 hPa | 0 mm | - | - | - |
| 1777839005 | 22.22° C | 22% | 1005.4 hPa | 0 mm | - | - | - |
| 1777838705 | 21.67° C | 24% | 1005.7 hPa | 0 mm | - | - | - |
| 1777838405 | 21.67° C | 25% | 1005.9 hPa | 0 mm | - | - | - |
| 1777838106 | 21.67° C | 25% | 1006 hPa | 0 mm | - | - | - |
| 1777837806 | 21.67° C | 25% | 1005.9 hPa | 0 mm | - | - | - |
| 1777837506 | 21.67° C | 25% | 1005.9 hPa | 0 mm | - | - | - |
| 1777837206 | 21.67° C | 25% | 1005.9 hPa | 0 mm | - | - | - |
| 1777836905 | 21.67° C | 24% | 1006 hPa | 0 mm | - | - | - |
| 1777836605 | 21.67° C | 25% | 1006.1 hPa | 0 mm | - | - | - |
| 1777836305 | 21.11° C | 24% | 1006.2 hPa | 0 mm | - | - | - |
| 1777836005 | 21.11° C | 24% | 1006.3 hPa | 0 mm | - | - | - |
| 1777835705 | 21.11° C | 25% | 1006.4 hPa | 0 mm | - | - | - |
| 1777835406 | 21.11° C | 25% | 1006.5 hPa | 0 mm | - | - | - |
| 1777835106 | 21.67° C | 25% | 1006.5 hPa | 0 mm | - | - | - |
| 1777834806 | 21.67° C | 26% | 1006.4 hPa | 0 mm | - | - | - |
| 1777834506 | 21.67° C | 25% | 1006.5 hPa | 0 mm | - | - | - |
| 1777834206 | 21.67° C | 25% | 1006.5 hPa | 0 mm | - | - | - |
| 1777833905 | 21.11° C | 26% | 1006.7 hPa | 0 mm | - | - | - |
| 1777833605 | 21.11° C | 27% | 1006.8 hPa | 0 mm | - | - | - |
| 1777833305 | 20.56° C | 30% | 1007.1 hPa | 0 mm | - | - | - |
| 1777833005 | 20.56° C | 31% | 1007.3 hPa | 0 mm | - | - | - |
| 1777832705 | 21.11° C | 30% | 1007.2 hPa | 0 mm | - | - | - |
* Rain latest hour (hover to see other rain measurements)
** Current wind speed in m/s (hover to see current wind gust speed)